Create Custom Reports and Graphics: Custom Report

Map - Northern Napa County

Map

15 Minute Data

Map - Southern Napa County

Map

15 Minute Data

Northeast Napa County

11 Stations

15 Minute Data | America/Los_Angeles
as of 5/2/26 3:55 PM PDT
Station Date Time Temp (°F) RH (%) Dew Pt (°F) Wind Spd (mph) Wind Dir (°) Wind Gust (mph) Latest Rain (In) Daily Rain (In) Daily Max Temp (°F) Daily Min Temp (°F)
Dollarhide 17B Remote 5/2/26 1545 73.1   8.3 59   9 58.0   3.0 - - - - - 74.3   8.4 48.0   3.1
Dollarhide 18A Remote 5/2/26 1545 70.6   8.7 58   6 55.4   4.9 - - - - - 72.9   8.3 45.2   4.2
Dollarhide 1AS Remote 5/2/26 1545 71.0   8.6 60   7 56.6   4.4 7.9   1.9 SW | 219 13.6   2.3 - - 73.4   8.9 47.8   4.1
Angwin 5/2/26 1545 61.1   11.1 72   23 51.8   0.2 6.6   2.5 SSE | 147 12.5   4.3 0.00 0.00 63.2   10.2 46.5   15.6
Lower Angwin (Pioneer) 5/2/26 1545 62.8   10.4 - - 4.9   0.9 SSW | 209 10.1   1.4 - - 65.2   9.4 45.7   0.5
Lower Chiles Valley (Brown) 5/2/26 1545 67.6   9.7 58   6 52.2   5.8 4.1   0.1 S | 184 10.8   1.4 0.00 0.00 69.3   8.7 49.9   3.0
Deer Park 5/2/26 1545 68.4   6.8 59   3 53.6   4.7 6.0   1.1 SSE | 163 11.1   1.2 0.00 0.00 69.2   7.2 50.4   2.6
Moss Creek Vineyard/Reservior 5/2/26 1500 70.2   12.3 53   12 52.1   4.3 - - - 0.00 0.00 71.0   12.8 46.9   0.3
Montesol 5/2/26 1545 63.8   9.5 - - - - - 0.00 0.00 71.3   7.4 46.4   1.4
Dollarhide Base 5/2/26 1545 71.6   8.7 58   6 56.1   5.0 9.0   2.4 SSW | 210 14.2   2.8 0.00 0.00 73.8   9.5 49.8   1.5
Pope Valley (Weeks Lake) 5/2/26 1545 71.5   10.0 51   17 52.4   1.8 6.6   3.1 SW | 227 13.6   6.4 0.00 0.00 72.4   9.5 45.8   4.6
Max     73.1 72 58.0 9.0 - 14.2 0.00 0.00 74.3 50.4
Avg     68.3 59 54.2 6.4 - 12.3 0.00 - - -
Min     61.1 51 51.8 4.1 - 10.1 0.00 0.00 63.2 45.2

Northern & Central Napa County

32 Stations

15 Minute Data | America/Los_Angeles
as of 5/2/26 3:55 PM PDT
Station Date Time Temp (°F) RH (%) Dew Pt (°F) Wind Spd (mph) Wind Dir (°) Wind Gust (mph) Latest Rain (In) Daily Rain (In) Daily Max Temp (°F) Daily Min Temp (°F)
Calistoga-North 5/2/26 1545 69.0   12.8 61   15 55.2   3.9 - - - 0.00 0.00 83.7   0.0 45.5   0.0
Stags Leap Dist (Chimney Rock) 5/2/26 1545 65.1   5.1 69   4 54.8   3.3 6.4   1.0 S | 175 12.0   1.6 0.00 0.00 66.6   4.3 53.3   9.5
Diamond Mtn (McEachran) 5/2/26 1545 66.4   10.1 63   8 53.3   5.7 - - - - - 68.9   7.9 51.2   3.0
Diamond Mtn (Schramsberg) 5/2/26 1545 65.9   9.8 65   11 53.6   4.1 - - - 0.00 0.00 68.6   8.0 49.3   0.4
Stags Leap Dist (Silverado Vineyards) 5/2/26 1545 64.8   4.0 62   1 51.7   3.3 7.1   0.7 SSE | 155 13.5   1.7 0.00 0.00 65.7   4.7 52.3   7.2
Oak Knoll-East (Ranch 53) 5/2/26 1545 64.8   4.5 62   2 51.4   3.3 5.4   0.6 S | 186 10.2   1.4 0.00 0.00 66.2   4.9 51.8   6.7
Rutherford-North (Mee Ln) 5/2/26 1545 67.5   6.1 61   4 53.7   3.9 10.1   2.9 SE | 142 17.1   5.0 0.00 0.00 68.9   6.3 50.1   7.5
Frisinger Napa-NW 5/2/26 1545 65.5   2.8 65   0 53.7   2.5 7.1   0.1 SSW | 206 12.9   0.2 0.00 0.00 66.5   3.6 49.5   3.5
Napa-North (Ranch 29) 5/2/26 1545 63.1   5.5 67   5 51.9   3.2 5.6   1.4 S | 180 12.7   3.9 0.00 0.00 65.0   4.4 53.1   7.0
St. Helena (NVV Office) 5/2/26 1545 70.4   6.0 - - 3.0   0.6 ESE | 122 8.2   2.7 0.00 0.00 71.8   7.1 53.1   5.7
Crossroads Ranch 5/2/26 1545 66.4   4.2 64   2 53.9   3.2 9.4   1.0 SE | 144 15.7   2.3 0.00 0.00 67.5   4.9 52.4   6.2
Oakville 5/2/26 1545 65.6   5.1 62   3 52.3   3.6 9.8   1.5 SE | 129 15.6   1.8 0.00 0.00 66.9   5.9 52.1   6.8
OV561-East 5/2/26 1545 68.4   4.3 - - - - - - - 69.1   5.0 52.1   5.3
OV518-West 5/2/26 1545 66.2   4.9 - - - - - - - 68.1   5.3 52.6   6.3
Napa-NW (Ranch 54) 5/2/26 1545 68.8   3.4 55   1 51.9   3.8 2.1   1.0 S | 181 9.1   5.4 0.00 0.00 69.5   3.7 51.3   4.6
Calistoga (Ranch 78) 5/2/26 1545 67.3   13.1 58   14 52.2   4.5 7.3   4.0 NW | 307 14.0   5.3 0.00 0.00 73.8   6.6 52.5   7.7
Yountville-SE (Ranch 85) 5/2/26 1545 65.2   4.9 64   3 52.9   3.4 5.7   0.6 S | 183 13.2   3.2 0.00 0.00 66.5   4.7 53.2   7.8
Yountville-South (Ranch 87) 5/2/26 1545 65.3   5.8 64   3 52.8   4.0 6.4   2.1 S | 183 11.4   1.7 0.00 0.00 67.8   4.5 52.3   7.0
Rutherford Hill Estate 5/2/26 1545 68.4   5.9 59   4 53.7   3.8 3.4   0.3 SSE | 153 14.0   5.3 0.00 0.00 70.2   5.2 51.3   2.2
Rutherford (STS) 5/2/26 1545 68.2   4.8 65   3 56.2   3.2 8.0   2.6 SE | 124 15.4   5.5 0.00 0.00 70.6   5.7 52.5   7.7
Borreo (Soda Canyon) 5/2/26 1545 61.4   6.6 69   7 51.3   3.5 4.0   1.1 SSE | 160 13.4   4.7 0.00 0.00 62.6   6.7 50.9   6.3
Oakville-NE (Ranch 88) 5/2/26 1545 67.9   5.2 57   3 52.0   3.6 7.4   1.5 S | 186 15.1   2.2 0.00 0.00 69.3   5.2 52.0   7.2
Soda Canyon 5/2/26 1545 63.3   5.3 72   3 54.1   4.1 7.7   2.4 S | 179 14.1   3.6 0.00 0.00 64.7   5.0 53.7   11.4
Silver Oak OV 5/2/26 1545 65.9   5.3 64   2 53.3   4.0 10.2   2.3 SE | 129 16.7   3.7 0.00 0.00 67.2   5.5 52.2   6.4
Tiara Fria (East St. Helena) 5/2/26 1545 68.2   7.0 58   5 52.9   4.0 6.6   2.2 SE | 140 13.8   5.1 0.00 0.00 68.8   7.0 53.4   5.7
To Kalon Remote (TKKE) 5/2/26 1545 68.2   5.4 - - - - - - - 70.4   5.1 52.9   8.5
To Kalon 5/2/26 1545 67.2   4.0 61   0 53.5   4.0 8.5   1.6 SE | 131 14.2   1.9 0.00 0.00 67.9   4.5 52.1   7.0
To Kalon Remote (TKN5) 5/2/26 1545 69.7   3.1 - - - - - - - 71.0   4.0 52.4   6.9
St. Helena-North 5/2/26 1545 68.8   9.8 54   8 51.6   4.7 6.1   0.9 SSE | 153 10.3   0.0 0.00 0.00 71.1   8.6 52.8   6.7
Twomey Calistoga 5/2/26 1545 68.5   10.6 60   8 54.0   5.7 4.8   2.6 WNW | 302 9.4   4.7 0.00 0.00 71.9   8.2 52.6   9.9
Wappo Hill Floor 5/2/26 1545 66.6   4.2 61   2 52.6   3.2 7.0   1.8 SSE | 162 11.8   2.3 0.00 0.00 67.4   4.5 52.5   9.0
Yountville (Ranch 67) 5/2/26 1545 65.0   4.8 62   3 51.6   3.1 8.3   1.6 SSE | 152 14.8   3.4 0.00 0.00 66.5   4.7 52.2   6.8
Max     70.4 72 56.2 10.2 - 17.1 0.00 0.00 83.7 53.7
Avg     66.7 62 53.0 6.7 - 13.1 0.00 - - -
Min     61.4 54 51.3 2.1 - 8.2 0.00 0.00 62.6 45.5

Southern Napa County

23 Stations

15 Minute Data | America/Los_Angeles
as of 5/2/26 3:55 PM PDT
Station Date Time Temp (°F) RH (%) Dew Pt (°F) Wind Spd (mph) Wind Dir (°) Wind Gust (mph) Latest Rain (In) Daily Rain (In) Daily Max Temp (°F) Daily Min Temp (°F)
Carneros (Milton Rd) 5/2/26 1545 62.2   3.6 70   3 52.4   2.3 - - - 0.00 0.00 62.9   4.1 53.5   10.9
Carneros Lower (Ranch 81) 5/2/26 1545 64.7   1.4 65   4 52.9   3.1 0.8   3.8 S | 179 5.1   4.8 0.00 0.00 64.7   3.0 52.6   6.9
Carneros Upper (Ranch 81) 5/2/26 1545 61.2   6.0 66   3 50.0   4.3 9.2   2.6 SW | 236 13.5   1.7 - - 63.9   5.7 52.1   3.9
Carneros (Mitsuko) 5/2/26 1545 62.0   4.0 - - - - - - - 62.7   4.7 51.8   11.8
Mount George (Napa East) 5/2/26 1545 61.7   8.7 72   7 52.4   5.5 3.3   0.2 SSW | 212 8.3   1.1 0.00 0.00 64.8   6.4 57.5   7.6
Napa-East (Palmaz 300') 5/2/26 1545 61.7   8.3 70   11 51.9   3.1 4.8   1.7 SW | 221 10.8   4.2 0.00 0.00 64.8   6.1 53.4   4.7
Napa-East (Palmaz 1200') 5/2/26 1545 56.7   9.1 82   13 51.2   4.0 3.2   0.5 NW | 320 10.2   1.5 - - 59.0   7.4 49.1   5.3
Napa-East (Palmaz 1400') 5/2/26 1545 56.5   10.4 82   15 51.2   4.6 4.4   0.2 SSW | 212 12.2   2.3 0.00 0.00 59.1   9.1 48.3   2.5
Dealy Lane (Ranch 80) 5/2/26 1545 62.7   4.5 67   0 51.7   4.2 3.4   1.6 SW | 227 8.5   2.7 0.00 0.00 63.9   4.3 52.0   6.5
Suscol Mtn (Ranch 93) 5/2/26 1545 57.6   6.6 77   8 50.3   3.2 9.4   3.2 W | 277 16.6   5.7 0.00 0.00 64.7   4.0 49.7   0.9
Carneros (Saintsbury) 5/2/26 1545 61.5   4.2 71   4 51.9   2.6 8.0   0.7 S | 175 13.9   1.2 0.00 0.00 62.7   4.5 50.7   7.4
Sugarloaf West 5/2/26 1545 61.6   3.7 73   1 53.0   3.3 6.5   1.4 S | 180 15.2   3.7 0.00 0.00 62.4   3.8 54.1   7.8
Suscol Upper (Ranch 92) 5/2/26 1545 57.7   7.5 77   10 50.7   3.6 9.2   4.7 SW | 226 15.4   7.1 0.00 0.00 60.5   5.7 50.5   1.0
Stanly (Ranch 45) 5/2/26 1545 62.2   4.3 69   4 51.8   2.5 10.1   1.9 SSW | 210 15.0   3.4 0.00 0.00 63.0   4.4 52.1   8.3
Suscol Lower (Ranch 35) 5/2/26 1545 61.6   4.6 69   1 51.5   4.1 8.6   2.6 SSW | 200 15.9   5.1 0.00 0.00 63.3   4.0 53.2   5.4
Napa-South (Toyon Farms) 5/2/26 1545 61.2   4.3 78   4 54.2   2.9 9.8   2.3 S | 179 13.8   2.0 0.00 0.00 62.5   5.6 52.8   6.1
Toyon Remote 1 5/2/26 1545 62.4   3.7 - - - - - - - 64.1   5.1 50.1   11.1
Toyon Remote 2 5/2/26 1545 62.0   3.8 - - - - - - - 63.2   4.1 52.9   9.4
Toyon Remote 3 5/2/26 1545 62.8   4.0 - - - - - - - 64.5   3.8 51.8   8.5
Napa-West Lower (Truchard) 5/2/26 1545 64.3   3.6 65   2 52.2   2.6 - - - - - 64.9   5.1 50.1   8.6
Napa-West Upper (Truchard) 5/2/26 1545 63.3   3.4 68   2 52.5   2.4 9.4   0.7 S | 188 16.7   2.4 0.00 0.00 64.2   4.2 50.9   3.7
Mt. Veeder 5/2/26 1545 60.2   9.3 72   7 51.1   6.0 6.6   3.4 SSE | 160 11.0   4.1 0.00 0.00 61.9   9.5 46.2   3.7
Wooden Valley 5/2/26 1545 61.7   10.7 67   13 50.8   4.4 8.1   3.9 SW | 228 14.5   5.7 0.00 0.00 63.0   10.2 50.6   0.4
Max     64.7 82 54.2 10.1 - 16.7 0.00 0.00 64.9 57.5
Avg     61.3 72 51.8 6.7 - 12.7 0.00 - - -
Min     56.5 65 50.0 0.8 - 5.1 0.00 0.00 59.0 46.2